Airfield :
LOGIN :

Register | Disclaimer

   EN    FR    IT 

 










Legend :    VFR   Marginal VFR   IFR   Intensive IFR   Very Intensive IFR
Visi :
Ceiling :
>= 8 km
>= 3000ft
5 to 8 km
1000 to 3000 ft
1500m to 5 km
500 to 1000 ft
800 to 1500m
200 to 500 ft
< 800m
< 200 ft
Symbols :   Thunderstorms  Fog  Heavy snow  Heavy precipitations  Wind > 20 kt
SIGMETs :     Misc.  Thunderstorms  Icing  Turbulence  Mountain Waves  Volcanic Ashes







- Airport Elevation : 202 ft
- IATA code : LGW
- Download approach charts


EGKK - London Gatwick

CURRENT METAR :
  • 262250Z 32003KT CAVOK 03/M00 Q1020

EXPIRED METARs :
  • 262220Z 32004KT CAVOK 03/00 Q1020
  • 262150Z 31004KT 260V340 CAVOK 04/00 Q1020
  • 262120Z 01004KT CAVOK 04/00 Q1020
  • 262050Z 01005KT CAVOK 04/00 Q1020
  • 262020Z 04007KT CAVOK 05/01 Q1020

TAF TAF EGKK
Valid from the 26 at 18:00 until the 28 at 00:00 UTC


261657Z 2618/2724 34009KT 9999 SCT040
TEMPO 2618/2620 02018G28KT 7000 SHRA
PROB40
TEMPO 2618/2619 4000 +SHRA SHGS
PROB30 2700/2707 3000 BR MIFG
PROB30
TEMPO 2716/2724 9000 -RA BKN014
No reported NOTAMs for that airfield.



MET'MAP, your aeronautical weather chart ! - Copyright ORBIFLY December 2007 - Disclaimer

ORBIFLY MET'MAP TEAM :

Programming & Development : Alexandra Zaïnal
Concept & Development : Baudouin d'Aumeries
Co-Development & Prog : Marc-Olivier Méhu
Technical & hardware support : Manuel Goepfert

Contact : metmap@orbifly.com




SOURCES & CREDITS :

   NOAA